地図

経路データ

SID SEASON NUMBER BASIN SUBBASIN NAME ISO_TIME NATURE LAT LON WMO_WIND WMO_PRES WMO_AGENCY TRACK_TYPE DIST2LAND LANDFALL IFLAG USA_AGENCY USA_ATCF_ID USA_LAT USA_LON USA_RECORD USA_STATUS USA_WIND USA_PRES USA_SSHS USA_R34_NE USA_R34_SE USA_R34_SW USA_R34_NW USA_R50_NE USA_R50_SE USA_R50_SW USA_R50_NW USA_R64_NE USA_R64_SE USA_R64_SW USA_R64_NW USA_POCI USA_ROCI USA_RMW USA_EYE TOKYO_LAT TOKYO_LON TOKYO_GRADE TOKYO_WIND TOKYO_PRES TOKYO_R50_DIR TOKYO_R50_LONG TOKYO_R50_SHORT TOKYO_R30_DIR TOKYO_R30_LONG TOKYO_R30_SHORT TOKYO_LAND CMA_LAT CMA_LON CMA_CAT CMA_WIND CMA_PRES HKO_LAT HKO_LON HKO_CAT HKO_WIND HKO_PRES NEWDELHI_LAT NEWDELHI_LON NEWDELHI_GRADE NEWDELHI_WIND NEWDELHI_PRES NEWDELHI_CI NEWDELHI_DP NEWDELHI_POCI REUNION_LAT REUNION_LON REUNION_TYPE REUNION_WIND REUNION_PRES REUNION_TNUM REUNION_CI REUNION_RMW REUNION_R34_NE REUNION_R34_SE REUNION_R34_SW REUNION_R34_NW REUNION_R50_NE REUNION_R50_SE REUNION_R50_SW REUNION_R50_NW REUNION_R64_NE REUNION_R64_SE REUNION_R64_SW REUNION_R64_NW BOM_LAT BOM_LON BOM_TYPE BOM_WIND BOM_PRES BOM_TNUM BOM_CI BOM_RMW BOM_R34_NE BOM_R34_SE BOM_R34_SW BOM_R34_NW BOM_R50_NE BOM_R50_SE BOM_R50_SW BOM_R50_NW BOM_R64_NE BOM_R64_SE BOM_R64_SW BOM_R64_NW BOM_ROCI BOM_POCI BOM_EYE BOM_POS_METHOD BOM_PRES_METHOD NADI_LAT NADI_LON NADI_CAT NADI_WIND NADI_PRES WELLINGTON_LAT WELLINGTON_LON WELLINGTON_WIND WELLINGTON_PRES DS824_LAT DS824_LON DS824_STAGE DS824_WIND DS824_PRES TD9636_LAT TD9636_LON TD9636_STAGE TD9636_WIND TD9636_PRES TD9635_LAT TD9635_LON TD9635_WIND TD9635_PRES TD9635_ROCI NEUMANN_LAT NEUMANN_LON NEUMANN_CLASS NEUMANN_WIND NEUMANN_PRES MLC_LAT MLC_LON MLC_CLASS MLC_WIND MLC_PRES USA_GUST BOM_GUST BOM_GUST_PER REUNION_GUST REUNION_GUST_PER USA_SEAHGT USA_SEARAD_NE USA_SEARAD_SE USA_SEARAD_SW USA_SEARAD_NW STORM_SPEED STORM_DIR
1941052S15069 1941 13 SI MM NOT_NAMED 1941-02-21 06:00:00 NR -14.9000 68.5000 reunion main 1284 1269 _____O________ -1 -14.9000 68.5000 99 9.90000 3 219
1941052S15069 1941 13 SI MM NOT_NAMED 1941-02-21 09:00:00 NR -15.0071 68.4053 main 1269 1254 _____P________ -1 -15.0071 68.4053 99 3 220
1941052S15069 1941 13 SI MM NOT_NAMED 1941-02-21 12:00:00 NR -15.1171 68.3089 main 1254 1240 _____P________ -1 -15.1171 68.3089 99 3 220
1941052S15069 1941 13 SI MM NOT_NAMED 1941-02-21 15:00:00 NR -15.2329 68.2090 main 1240 1219 _____P________ -1 -15.2329 68.2090 99 3 220
1941052S15069 1941 13 SI MM NOT_NAMED 1941-02-21 18:00:00 NR -15.3573 68.1041 main 1219 1205 _____P________ -1 -15.3573 68.1041 99 3 219
1941052S15069 1941 13 SI MM NOT_NAMED 1941-02-21 21:00:00 NR -15.4933 67.9925 main 1205 1190 _____P________ -1 -15.4933 67.9925 99 4 218
1941052S15069 1941 13 SI MM NOT_NAMED 1941-02-22 00:00:00 NR -15.6439 67.8724 main 1190 1161 _____P________ -1 -15.6439 67.8724 99 4 217
1941052S15069 1941 13 SI MM NOT_NAMED 1941-02-22 03:00:00 NR -15.8118 67.7421 main 1161 1141 _____P________ -1 -15.8118 67.7421 99 4 216
1941052S15069 1941 13 SI MM NOT_NAMED 1941-02-22 06:00:00 NR -16.0000 67.6000 reunion main 1141 1122 _____O________ -1 -16.0000 67.6000 99 9.90000 5 215
1941052S15069 1941 13 SI MM NOT_NAMED 1941-02-22 09:00:00 NR -16.2102 67.4453 main 1112 1093 _____P________ -1 -16.2102 67.4453 99 5 215
1941052S15069 1941 13 SI MM NOT_NAMED 1941-02-22 12:00:00 NR -16.4397 67.2820 main 1093 1059 _____P________ -1 -16.4397 67.2820 99 6 214
1941052S15069 1941 13 SI MM NOT_NAMED 1941-02-22 15:00:00 NR -16.6845 67.1148 main 1059 1041 _____P________ -1 -16.6845 67.1148 99 6 212
1941052S15069 1941 13 SI MM NOT_NAMED 1941-02-22 18:00:00 NR -16.9405 66.9490 main 1031 1008 _____P________ -1 -16.9405 66.9490 99 6 211
1941052S15069 1941 13 SI MM NOT_NAMED 1941-02-22 21:00:00 NR -17.2040 66.7895 main 1008 977 _____P________ -1 -17.2040 66.7895 99 6 209
1941052S15069 1941 13 SI MM NOT_NAMED 1941-02-23 00:00:00 NR -17.4710 66.6414 main 977 959 _____P________ -1 -17.4710 66.6414 99 6 206
1941052S15069 1941 13 SI MM NOT_NAMED 1941-02-23 03:00:00 NR -17.7376 66.5098 main 959 939 _____P________ -1 -17.7376 66.5098 99 6 204
1941052S15069 1941 13 SI MM NOT_NAMED 1941-02-23 06:00:00 NR -18.0000 66.4000 reunion main 939 922 _____O________ -1 -18.0000 66.4000 99 9.90000 5 200
1941052S15069 1941 13 SI MM NOT_NAMED 1941-02-23 09:00:00 NR -18.2439 66.3129 main 922 903 _____P________ -1 -18.2439 66.3129 99 5 197
1941052S15069 1941 13 SI MM NOT_NAMED 1941-02-23 12:00:00 NR -18.4859 66.2452 main 903 898 _____P________ -1 -18.4859 66.2452 99 5 193
1941052S15069 1941 13 SI MM NOT_NAMED 1941-02-23 15:00:00 NR -18.7261 66.1961 main 898 891 _____P________ -1 -18.7261 66.1961 99 5 189
1941052S15069 1941 13 SI MM NOT_NAMED 1941-02-23 18:00:00 NR -18.9646 66.1647 main 891 887 _____P________ -1 -18.9646 66.1647 99 5 184
1941052S15069 1941 13 SI MM NOT_NAMED 1941-02-23 21:00:00 NR -19.2012 66.1503 main 887 873 _____P________ -1 -19.2012 66.1503 99 5 181
1941052S15069 1941 13 SI MM NOT_NAMED 1941-02-24 00:00:00 NR -19.4360 66.1519 main 884 880 _____P________ -1 -19.4360 66.1519 99 5 178
1941052S15069 1941 13 SI MM NOT_NAMED 1941-02-24 03:00:00 NR -19.6689 66.1687 main 880 878 _____P________ -1 -19.6689 66.1687 99 5 174
1941052S15069 1941 13 SI MM NOT_NAMED 1941-02-24 06:00:00 NR -19.9000 66.2000 reunion main 878 876 _____O________ -1 -19.9000 66.2000 99 9.90000 5 172
1941052S15069 1941 13 SI MM NOT_NAMED 1941-02-24 09:00:00 NR -20.1292 66.2447 main 876 876 _____P________ -1 -20.1292 66.2447 99 5 168
1941052S15069 1941 13 SI MM NOT_NAMED 1941-02-24 12:00:00 NR -20.3568 66.3014 main 886 885 _____P________ -1 -20.3568 66.3014 99 5 165
1941052S15069 1941 13 SI MM NOT_NAMED 1941-02-24 15:00:00 NR -20.5829 66.3684 main 896 896 _____P________ -1 -20.5829 66.3684 99 5 164
1941052S15069 1941 13 SI MM NOT_NAMED 1941-02-24 18:00:00 NR -20.8079 66.4440 main 896 896 _____P________ -1 -20.8079 66.4440 99 5 162
1941052S15069 1941 13 SI MM NOT_NAMED 1941-02-24 21:00:00 NR -21.0318 66.5267 main 908 908 _____P________ -1 -21.0318 66.5267 99 5 160
1941052S15069 1941 13 SI MM NOT_NAMED 1941-02-25 00:00:00 NR -21.2550 66.6147 main 921 921 _____P________ -1 -21.2550 66.6147 99 5 159
1941052S15069 1941 13 SI MM NOT_NAMED 1941-02-25 03:00:00 NR -21.4777 66.7064 main 933 933 _____P________ -1 -21.4777 66.7064 99 5 159
1941052S15069 1941 13 SI MM NOT_NAMED 1941-02-25 06:00:00 NR -21.7000 66.8000 reunion main 946 _____O________ -1 -21.7000 66.8000 99 9.90000 5 158

IBTrACS Databaseについて

本データベースは、米国NOAAが公開する1842年以降の世界の熱帯低気圧のベストトラックデータアーカイブInternational Best Track Archive for Climate Stewardship (IBTrACS)を、ウェブで閲覧しやすい形式に変換したものです。

最終更新日:2021-12-06